createdAt,value
2023-01-12T00:01:48.059Z,87.01
2023-01-12T00:05:30.726Z,87.93
2023-01-12T00:09:14.839Z,88.05
2023-01-12T00:12:57.524Z,87.78
2023-01-12T00:16:41.117Z,87.24
2023-01-12T00:20:23.875Z,87.22
2023-01-12T00:24:11.240Z,89.01
2023-01-12T00:27:55.300Z,89.91
2023-01-12T00:31:38.045Z,90.91
2023-01-12T00:35:20.810Z,92.27
2023-01-12T00:39:03.692Z,93.62
2023-01-12T00:43:04.040Z,93.94
2023-01-12T00:46:48.154Z,94.82
2023-01-12T00:50:30.832Z,94.27
2023-01-12T00:54:13.546Z,93.93
2023-01-12T00:57:56.199Z,93.99
2023-01-12T01:01:39.141Z,93.19
2023-01-12T01:05:23.319Z,93.54
2023-01-12T01:09:06.657Z,92.22
2023-01-12T01:12:49.400Z,93.53
2023-01-12T01:16:32.343Z,92.08
2023-01-12T01:20:15.050Z,91.85
2023-01-12T01:23:59.176Z,90.93
2023-01-12T01:27:41.961Z,89.74
2023-01-12T01:31:27.679Z,90.79
2023-01-12T01:35:10.987Z,89.83
2023-01-12T01:38:53.851Z,88.76
2023-01-12T01:42:38.036Z,89.01
2023-01-12T01:46:32.898Z,88.68
2023-01-12T01:50:18.275Z,88.11
2023-01-12T01:54:01.360Z,88.34
2023-01-12T01:57:48.378Z,88.50
2023-01-12T02:01:31.255Z,87.63
2023-01-12T02:05:15.066Z,87.18
2023-01-12T02:09:00.105Z,86.74
2023-01-12T02:13:00.837Z,87.52
2023-01-12T02:16:53.581Z,87.04
2023-01-12T02:20:51.149Z,86.90
2023-01-12T02:24:57.943Z,87.72
2023-01-12T02:29:21.014Z,87.51
2023-01-12T02:33:17.046Z,87.08
2023-01-12T02:37:09.253Z,87.39
2023-01-12T02:40:59.243Z,87.17
2023-01-12T02:44:44.981Z,86.26
2023-01-12T02:48:31.601Z,86.50
2023-01-12T02:52:16.155Z,87.23
2023-01-12T02:56:00.558Z,86.49
2023-01-12T02:59:45.714Z,86.57
2023-01-12T03:03:29.839Z,86.22
2023-01-12T03:07:33.229Z,85.80
2023-01-12T03:11:17.201Z,85.75
2023-01-12T03:15:01.301Z,85.37
2023-01-12T03:18:52.466Z,85.37
2023-01-12T03:22:36.514Z,85.48
2023-01-12T03:26:23.142Z,86.02
2023-01-12T03:30:08.249Z,86.27
2023-01-12T03:33:52.470Z,85.96
2023-01-12T03:37:38.998Z,85.67
2023-01-12T03:41:27.956Z,85.86
2023-01-12T03:45:18.558Z,86.30
2023-01-12T03:49:05.543Z,85.66
2023-01-12T03:52:49.546Z,85.82
2023-01-12T03:56:34.825Z,85.49
2023-01-12T04:00:18.695Z,85.62
2023-01-12T04:04:02.770Z,85.59
2023-01-12T04:07:45.469Z,85.09
2023-01-12T04:11:45.832Z,85.11
2023-01-12T04:15:29.738Z,84.55
2023-01-12T04:19:13.808Z,84.65
2023-01-12T04:22:56.581Z,83.72
2023-01-12T04:26:39.231Z,83.86
2023-01-12T04:30:23.543Z,83.32
2023-01-12T04:34:06.304Z,82.89
2023-01-12T04:37:50.580Z,82.89
2023-01-12T04:41:33.335Z,82.28
2023-01-12T04:45:16.107Z,81.70
2023-01-12T04:48:59.147Z,81.48
2023-01-12T04:52:42.024Z,81.28
2023-01-12T04:56:26.147Z,81.17
2023-01-12T05:00:10.275Z,80.57
2023-01-12T05:03:55.341Z,80.33
2023-01-12T05:07:58.048Z,79.78
2023-01-12T05:11:42.116Z,79.50
2023-01-12T05:15:25.120Z,78.77
2023-01-12T05:19:07.775Z,78.61
2023-01-12T05:22:51.389Z,78.81
2023-01-12T05:26:34.100Z,79.17
2023-01-12T05:30:18.751Z,78.87
2023-01-12T05:34:01.500Z,77.95
2023-01-12T05:37:44.251Z,77.85
2023-01-12T05:41:26.986Z,77.30
2023-01-12T05:45:10.543Z,77.24
2023-01-12T05:48:56.244Z,77.13
2023-01-12T05:52:38.972Z,76.73
2023-01-12T05:56:25.610Z,76.80
2023-01-12T06:00:10.331Z,76.21
2023-01-12T06:03:55.803Z,75.98
2023-01-12T06:07:38.626Z,75.18
2023-01-12T06:11:50.802Z,74.72
2023-01-12T06:15:33.838Z,74.82
2023-01-12T06:19:17.931Z,74.36
2023-01-12T06:23:01.575Z,74.66
2023-01-12T06:26:45.268Z,74.37
2023-01-12T06:30:27.957Z,74.24
2023-01-12T06:34:12.040Z,74.45
2023-01-12T06:37:58.078Z,73.76
2023-01-12T06:41:58.041Z,73.29
2023-01-12T06:45:40.791Z,73.36
2023-01-12T06:49:23.437Z,73.12
2023-01-12T06:53:07.993Z,72.27
2023-01-12T06:56:50.743Z,71.62
2023-01-12T07:00:33.915Z,71.33
2023-01-12T07:04:16.652Z,71.03
2023-01-12T07:08:00.559Z,70.38
2023-01-12T07:11:44.633Z,70.24
2023-01-12T07:15:27.317Z,70.16
2023-01-12T07:19:10.155Z,69.64
2023-01-12T07:22:52.870Z,69.87
2023-01-12T07:26:35.569Z,69.93
2023-01-12T07:30:20.299Z,69.44
2023-01-12T07:34:02.985Z,69.32
2023-01-12T07:37:48.388Z,69.55
2023-01-12T07:41:48.437Z,69.65
2023-01-12T07:45:33.289Z,68.69
2023-01-12T07:49:16.022Z,68.66
2023-01-12T07:53:01.693Z,68.75
2023-01-12T07:56:44.459Z,68.62
2023-01-12T08:00:28.087Z,67.95
2023-01-12T08:04:12.116Z,67.67
2023-01-12T08:07:54.834Z,67.26
2023-01-12T08:11:38.405Z,66.60
2023-01-12T08:15:21.941Z,66.48
2023-01-12T08:19:08.856Z,66.23
2023-01-12T08:22:55.878Z,66.09
2023-01-12T08:26:40.107Z,65.04
2023-01-12T08:30:24.318Z,64.13
2023-01-12T08:34:07.940Z,64.09
2023-01-12T08:37:52.087Z,63.20
2023-01-12T08:41:37.418Z,62.70
2023-01-12T08:45:21.727Z,62.89
2023-01-12T08:49:06.074Z,62.11
2023-01-12T08:52:48.764Z,62.01
2023-01-12T08:56:32.916Z,62.35
2023-01-12T09:00:16.507Z,61.51
2023-01-12T09:03:59.749Z,61.73
2023-01-12T09:07:42.928Z,60.80
2023-01-12T09:11:26.749Z,60.96
2023-01-12T09:15:12.289Z,60.09
2023-01-12T09:18:55.058Z,59.97
2023-01-12T09:22:37.787Z,59.26
2023-01-12T09:26:22.343Z,58.71
2023-01-12T09:30:05.740Z,58.13
2023-01-12T09:33:50.508Z,58.42
2023-01-12T09:37:33.185Z,57.33
2023-01-12T09:41:18.444Z,57.34
2023-01-12T09:45:18.788Z,57.35
2023-01-12T09:49:03.013Z,57.06
2023-01-12T09:52:49.146Z,57.17
2023-01-12T09:56:36.464Z,56.53
2023-01-12T10:00:21.275Z,55.11
2023-01-12T10:04:06.434Z,54.90
2023-01-12T10:07:50.046Z,55.18
2023-01-12T10:11:37.374Z,54.62
2023-01-12T10:15:39.053Z,54.23
2023-01-12T10:19:28.110Z,54.13
2023-01-12T10:23:14.723Z,54.71
2023-01-12T10:27:01.436Z,53.99
2023-01-12T10:30:44.852Z,53.80
2023-01-12T10:34:30.217Z,53.86
2023-01-12T10:38:21.046Z,53.89
2023-01-12T10:42:31.245Z,53.83
2023-01-12T10:46:16.444Z,53.79
2023-01-12T10:50:14.853Z,53.38
2023-01-12T10:54:00.687Z,52.59
2023-01-12T10:57:44.579Z,52.31
2023-01-12T11:01:27.527Z,51.95
2023-01-12T11:05:30.045Z,53.01
2023-01-12T11:09:20.057Z,51.97
2023-01-12T11:13:04.481Z,52.08
2023-01-12T11:16:50.185Z,51.05
2023-01-12T11:20:39.562Z,51.61
2023-01-12T11:24:33.385Z,51.29
2023-01-12T11:28:20.247Z,50.43
2023-01-12T11:32:07.405Z,49.69
2023-01-12T11:35:55.095Z,50.00
2023-01-12T11:39:38.112Z,50.48
2023-01-12T11:43:46.913Z,50.82
2023-01-12T11:47:31.502Z,50.32
2023-01-12T11:51:16.871Z,50.63
2023-01-12T11:54:59.566Z,50.18
2023-01-12T11:58:49.723Z,50.80
2023-01-12T12:02:37.092Z,51.68
2023-01-12T12:06:36.404Z,51.05
2023-01-12T12:10:22.431Z,51.55
2023-01-12T12:14:18.004Z,52.08
2023-01-12T12:18:06.302Z,51.60
2023-01-12T12:21:52.316Z,51.82
2023-01-12T12:25:40.985Z,52.13
2023-01-12T12:29:33.587Z,52.80
2023-01-12T12:33:23.369Z,52.81
2023-01-12T12:37:14.207Z,52.75
2023-01-12T12:41:25.808Z,52.92
2023-01-12T12:45:19.025Z,53.23
2023-01-12T12:49:06.045Z,52.95
2023-01-12T12:53:04.127Z,52.68
2023-01-12T12:56:47.516Z,53.04
2023-01-12T13:00:40.533Z,53.07
2023-01-12T13:05:02.514Z,53.50
2023-01-12T13:08:47.989Z,53.16
2023-01-12T13:12:36.379Z,53.54
2023-01-12T13:16:46.996Z,53.49
2023-01-12T13:20:51.986Z,53.80
2023-01-12T13:24:43.139Z,53.75
2023-01-12T13:28:25.888Z,54.00
2023-01-12T13:32:43.846Z,53.98
2023-01-12T13:36:31.826Z,54.25
2023-01-12T13:40:21.317Z,54.62
2023-01-12T13:44:04.848Z,54.61
2023-01-12T13:47:50.179Z,54.79
2023-01-12T13:51:38.509Z,55.57
2023-01-12T13:55:24.881Z,55.65
2023-01-12T13:59:15.628Z,56.18
2023-01-12T14:02:58.709Z,56.15
2023-01-12T14:06:46.496Z,56.37
2023-01-12T14:10:37.576Z,56.19
2023-01-12T14:14:45.950Z,56.17
2023-01-12T14:18:30.131Z,55.86
2023-01-12T14:22:19.462Z,55.23
2023-01-12T14:26:13.230Z,55.83
2023-01-12T14:29:55.994Z,56.17
2023-01-12T14:33:40.962Z,56.70
2023-01-12T14:37:27.630Z,57.13
2023-01-12T14:41:32.569Z,56.92
2023-01-12T14:45:41.426Z,57.41
2023-01-12T14:49:28.778Z,57.35
2023-01-12T14:53:25.903Z,57.46
2023-01-12T14:57:20.479Z,57.22
2023-01-12T15:01:03.288Z,57.32
2023-01-12T15:04:52.239Z,57.46
2023-01-12T15:08:35.357Z,57.61
2023-01-12T15:12:54.627Z,58.13
2023-01-12T15:16:56.293Z,58.29
2023-01-12T15:20:58.084Z,58.53
2023-01-12T15:24:58.935Z,58.76
2023-01-12T15:28:41.926Z,58.68
2023-01-12T15:32:46.333Z,59.09
2023-01-12T15:36:30.446Z,59.19
2023-01-12T15:40:14.777Z,59.00
2023-01-12T15:43:57.514Z,59.04
2023-01-12T15:47:41.582Z,59.21
2023-01-12T15:51:24.387Z,59.43
2023-01-12T15:55:09.446Z,59.56
2023-01-12T15:58:52.925Z,59.71
2023-01-12T16:02:37.077Z,59.62
2023-01-12T16:06:21.174Z,60.02
2023-01-12T16:10:04.081Z,59.94
2023-01-12T16:13:49.094Z,59.86
2023-01-12T16:17:31.947Z,59.86
2023-01-12T16:21:16.630Z,60.24
2023-01-12T16:25:00.707Z,60.07
2023-01-12T16:28:43.520Z,59.84
2023-01-12T16:32:27.134Z,60.42
2023-01-12T16:36:10.517Z,60.49
2023-01-12T16:39:53.243Z,60.68
2023-01-12T16:43:38.061Z,60.49
2023-01-12T16:47:21.511Z,60.59
2023-01-12T16:51:04.285Z,60.41
2023-01-12T16:54:46.983Z,60.88
2023-01-12T16:58:29.774Z,60.93
2023-01-12T17:02:15.432Z,60.60
2023-01-12T17:05:58.483Z,60.62
2023-01-12T17:09:41.812Z,60.94
2023-01-12T17:13:24.696Z,60.86
2023-01-12T17:17:09.058Z,60.98
2023-01-12T17:21:01.804Z,61.18
2023-01-12T17:24:44.759Z,60.97
2023-01-12T17:28:29.783Z,60.87
2023-01-12T17:32:12.519Z,61.13
2023-01-12T17:35:55.262Z,61.07
2023-01-12T17:39:40.698Z,61.28
2023-01-12T17:43:23.479Z,61.69
2023-01-12T17:47:06.438Z,61.37
2023-01-12T17:50:49.133Z,61.51
2023-01-12T17:54:31.802Z,61.43
2023-01-12T17:58:17.443Z,60.98
2023-01-12T18:02:00.501Z,61.36
2023-01-12T18:05:46.988Z,61.44
2023-01-12T18:09:31.252Z,61.25
2023-01-12T18:13:15.313Z,60.95
2023-01-12T18:16:58.386Z,60.97
2023-01-12T18:20:41.064Z,61.20
2023-01-12T18:24:23.799Z,60.85
2023-01-12T18:28:06.639Z,60.92
2023-01-12T18:31:50.635Z,60.93
2023-01-12T18:35:36.772Z,60.63
2023-01-12T18:39:20.125Z,60.65
2023-01-12T18:43:02.828Z,60.69
2023-01-12T18:47:05.632Z,60.82
2023-01-12T18:51:10.894Z,60.61
2023-01-12T18:54:53.653Z,60.60
2023-01-12T18:58:36.950Z,60.35
2023-01-12T19:02:20.575Z,60.77
2023-01-12T19:06:22.150Z,60.82
2023-01-12T19:10:05.509Z,60.29
2023-01-12T19:14:05.743Z,60.25
2023-01-12T19:17:48.484Z,60.07
2023-01-12T19:21:49.867Z,60.35
2023-01-12T19:25:50.302Z,60.31
2023-01-12T19:29:34.107Z,60.35
2023-01-12T19:33:17.876Z,60.54
2023-01-12T19:37:01.910Z,60.63
2023-01-12T19:40:52.330Z,60.40
2023-01-12T19:44:34.993Z,60.43
2023-01-12T19:48:19.456Z,60.48
2023-01-12T19:52:03.616Z,60.97
2023-01-12T19:55:46.961Z,60.66
2023-01-12T19:59:29.664Z,60.65
2023-01-12T20:03:13.108Z,60.95
2023-01-12T20:06:56.391Z,61.55
2023-01-12T20:10:41.072Z,61.30
2023-01-12T20:14:23.772Z,60.73
2023-01-12T20:18:08.679Z,61.36
2023-01-12T20:21:51.722Z,61.46
2023-01-12T20:25:34.435Z,61.52
2023-01-12T20:29:18.635Z,61.37
2023-01-12T20:33:01.583Z,61.24
2023-01-12T20:36:47.077Z,61.53
2023-01-12T20:40:30.477Z,61.73
2023-01-12T20:44:16.412Z,61.67
2023-01-12T20:48:01.113Z,61.53
2023-01-12T20:51:43.827Z,62.23
2023-01-12T20:55:27.054Z,62.34
2023-01-12T20:59:10.137Z,61.84
2023-01-12T21:02:52.796Z,61.77
2023-01-12T21:06:37.166Z,61.32
2023-01-12T21:10:19.923Z,61.37
2023-01-12T21:14:02.693Z,60.68
2023-01-12T21:17:45.542Z,60.34
2023-01-12T21:21:28.477Z,60.18
2023-01-12T21:25:13.802Z,60.60
2023-01-12T21:28:56.519Z,60.37
2023-01-12T21:32:39.280Z,60.70
2023-01-12T21:36:23.443Z,60.23
2023-01-12T21:40:07.285Z,60.37
2023-01-12T21:43:52.394Z,60.31
2023-01-12T21:47:35.107Z,71.81
2023-01-12T21:51:18.347Z,58.03
2023-01-12T21:55:01.169Z,58.23
2023-01-12T21:58:43.936Z,58.42
2023-01-12T22:02:27.974Z,59.20
2023-01-12T22:06:12.448Z,59.81
2023-01-12T22:10:15.728Z,60.37
2023-01-12T22:13:58.458Z,60.61
2023-01-12T22:17:42.941Z,60.47
2023-01-12T22:21:26.117Z,60.77
2023-01-12T22:25:10.234Z,61.26
2023-01-12T22:28:52.991Z,62.00
2023-01-12T22:32:35.841Z,61.92
2023-01-12T22:36:19.893Z,62.39
2023-01-12T22:40:02.903Z,62.58
2023-01-12T22:43:45.569Z,62.35
2023-01-12T22:47:30.421Z,62.99
2023-01-12T22:51:13.190Z,63.69
2023-01-12T22:54:57.270Z,63.96
2023-01-12T22:58:40.451Z,63.96
2023-01-12T23:02:40.925Z,63.18
2023-01-12T23:06:24.587Z,63.00
2023-01-12T23:10:09.352Z,63.03
2023-01-12T23:13:52.342Z,62.80
2023-01-12T23:17:36.689Z,62.15
2023-01-12T23:21:20.722Z,61.70
2023-01-12T23:25:03.994Z,61.37
2023-01-12T23:28:49.820Z,61.37
2023-01-12T23:32:33.949Z,60.78
2023-01-12T23:36:18.028Z,60.41
2023-01-12T23:40:00.670Z,60.38
2023-01-12T23:43:44.065Z,60.57
2023-01-12T23:47:29.588Z,60.74
2023-01-12T23:51:15.735Z,60.48
2023-01-12T23:54:58.448Z,60.60
2023-01-12T23:58:41.516Z,60.29
